createdAt,value
2018-09-29T00:01:22.052Z,11.43
2018-09-29T00:03:55.549Z,6.73
2018-09-29T00:06:29.090Z,7.13
2018-09-29T00:09:04.379Z,12.37
2018-09-29T00:11:38.980Z,9.60
2018-09-29T00:14:11.856Z,8.33
2018-09-29T00:16:44.673Z,5.43
2018-09-29T00:19:19.595Z,11.77
2018-09-29T00:21:52.058Z,10.73
2018-09-29T00:24:24.918Z,13.93
2018-09-29T00:26:57.444Z,11.60
2018-09-29T00:29:30.126Z,13.30
2018-09-29T00:32:03.160Z,17.00
2018-09-29T00:34:36.424Z,10.63
2018-09-29T00:37:10.652Z,11.70
2018-09-29T00:39:43.261Z,13.00
2018-09-29T00:42:16.232Z,10.60
2018-09-29T00:44:48.827Z,7.97
2018-09-29T00:47:21.297Z,16.00
2018-09-29T00:49:54.152Z,16.23
2018-09-29T00:52:26.775Z,14.25
2018-09-29T00:54:59.556Z,19.30
2018-09-29T00:57:34.840Z,14.00
2018-09-29T01:00:10.403Z,19.20
2018-09-29T01:02:46.263Z,21.77
2018-09-29T01:05:19.492Z,15.73
2018-09-29T01:07:56.773Z,14.77
2018-09-29T01:10:29.270Z,20.07
2018-09-29T01:13:02.137Z,16.70
2018-09-29T01:15:34.896Z,15.20
2018-09-29T01:18:07.964Z,18.10
2018-09-29T01:20:40.891Z,16.43
2018-09-29T01:23:13.881Z,19.70
2018-09-29T01:25:46.425Z,19.90
2018-09-29T01:28:20.972Z,21.30
2018-09-29T01:30:56.690Z,18.43
2018-09-29T01:33:30.260Z,16.37
2018-09-29T01:36:04.328Z,16.27
2018-09-29T01:38:36.884Z,18.60
2018-09-29T01:41:09.434Z,17.03
2018-09-29T01:43:42.290Z,13.97
2018-09-29T01:46:15.464Z,12.37
2018-09-29T01:48:48.792Z,16.93
2018-09-29T01:51:22.833Z,14.40
2018-09-29T01:53:56.480Z,21.43
2018-09-29T01:56:29.198Z,19.05
2018-09-29T01:59:03.976Z,14.80
2018-09-29T02:01:36.611Z,14.87
2018-09-29T02:04:09.462Z,18.03
2018-09-29T02:06:42.586Z,15.98
2018-09-29T02:09:15.188Z,18.37
2018-09-29T02:11:47.779Z,13.20
2018-09-29T02:14:20.972Z,16.13
2018-09-29T02:16:53.779Z,13.30
2018-09-29T02:19:28.278Z,19.37
2018-09-29T02:22:02.233Z,16.10
2018-09-29T02:24:34.752Z,15.60
2018-09-29T02:27:07.776Z,14.60
2018-09-29T02:29:40.934Z,19.20
2018-09-29T02:32:13.760Z,13.30
2018-09-29T02:34:47.253Z,14.23
2018-09-29T02:37:20.162Z,14.77
2018-09-29T02:39:53.902Z,15.77
2018-09-29T02:42:26.718Z,17.87
2018-09-29T02:44:59.651Z,11.67
2018-09-29T02:47:33.678Z,16.77
2018-09-29T02:50:06.605Z,16.63
2018-09-29T02:52:40.779Z,9.40
2018-09-29T02:55:13.496Z,17.70
2018-09-29T02:57:46.280Z,13.23
2018-09-29T03:00:21.323Z,14.83
2018-09-29T03:02:53.893Z,18.00
2018-09-29T03:05:26.440Z,18.93
2018-09-29T03:07:59.239Z,16.03
2018-09-29T03:10:31.794Z,16.27
2018-09-29T03:13:04.414Z,17.53
2018-09-29T03:15:37.745Z,16.30
2018-09-29T03:18:11.500Z,15.20
2018-09-29T03:20:44.316Z,19.50
2018-09-29T03:23:17.168Z,18.57
2018-09-29T03:25:49.700Z,18.20
2018-09-29T03:28:23.129Z,13.30
2018-09-29T03:30:57.945Z,13.80
2018-09-29T03:33:30.769Z,18.40
2018-09-29T03:36:03.313Z,9.90
2018-09-29T03:38:36.102Z,11.60
2018-09-29T03:41:08.810Z,15.02
2018-09-29T03:43:41.400Z,20.75
2018-09-29T03:46:14.430Z,16.30
2018-09-29T03:48:47.018Z,11.57
2018-09-29T03:51:19.796Z,17.93
2018-09-29T03:53:52.604Z,20.30
2018-09-29T03:56:25.917Z,14.33
2018-09-29T03:58:58.993Z,15.07
2018-09-29T04:01:32.948Z,15.85
2018-09-29T04:06:38.144Z,12.03
2018-09-29T04:09:10.940Z,22.93
2018-09-29T04:11:44.889Z,15.93
2018-09-29T04:14:17.501Z,17.77
2018-09-29T04:16:51.427Z,22.10
2018-09-29T04:19:24.571Z,17.57
2018-09-29T04:21:58.815Z,12.43
2018-09-29T04:24:31.714Z,21.53
2018-09-29T04:27:05.128Z,20.08
2018-09-29T04:29:37.669Z,20.10
2018-09-29T04:32:10.639Z,14.63
2018-09-29T04:34:45.405Z,15.30
2018-09-29T04:37:17.845Z,15.07
2018-09-29T04:39:50.669Z,21.10
2018-09-29T04:42:23.216Z,17.20
2018-09-29T04:44:56.049Z,13.37
2018-09-29T04:47:29.142Z,12.23
2018-09-29T04:50:01.858Z,19.52
2018-09-29T04:52:35.058Z,15.33
2018-09-29T04:55:08.592Z,16.70
2018-09-29T04:57:41.960Z,13.10
2018-09-29T05:00:18.172Z,14.73
2018-09-29T05:02:51.957Z,16.15
2018-09-29T05:05:25.444Z,12.60
2018-09-29T05:07:58.041Z,11.57
2018-09-29T05:10:30.916Z,16.23
2018-09-29T05:13:04.279Z,13.13
2018-09-29T05:15:37.335Z,11.97
2018-09-29T05:18:10.314Z,15.93
2018-09-29T05:20:42.815Z,14.48
2018-09-29T05:23:15.517Z,11.07
2018-09-29T05:25:51.614Z,17.00
2018-09-29T05:28:24.285Z,12.90
2018-09-29T05:30:57.719Z,15.65
2018-09-29T05:33:31.006Z,16.20
2018-09-29T05:36:03.647Z,8.97
2018-09-29T05:38:37.781Z,10.67
2018-09-29T05:41:12.441Z,11.43
2018-09-29T05:43:45.103Z,10.07
2018-09-29T05:46:22.069Z,10.73
2018-09-29T05:48:55.349Z,12.35
2018-09-29T05:51:28.032Z,11.00
2018-09-29T05:54:02.509Z,11.93
2018-09-29T05:56:36.561Z,13.37
2018-09-29T05:59:11.336Z,9.23
2018-09-29T06:01:45.772Z,10.50
2018-09-29T06:04:18.391Z,9.07
2018-09-29T06:06:51.221Z,10.37
2018-09-29T06:09:24.489Z,15.33
2018-09-29T06:11:58.116Z,14.13
2018-09-29T06:14:35.537Z,13.13
2018-09-29T06:17:08.849Z,16.48
2018-09-29T06:19:41.816Z,13.82
2018-09-29T06:22:21.736Z,15.23
2018-09-29T06:24:54.352Z,16.77
2018-09-29T06:27:27.136Z,18.60
2018-09-29T06:30:00.351Z,16.40
2018-09-29T06:32:34.342Z,16.60
2018-09-29T06:35:07.617Z,15.57
2018-09-29T06:37:42.139Z,14.93
2018-09-29T06:40:17.623Z,17.23
2018-09-29T06:42:54.265Z,17.87
2018-09-29T06:45:26.871Z,15.80
2018-09-29T06:48:06.535Z,19.55
2018-09-29T06:50:39.078Z,20.67
2018-09-29T06:53:11.729Z,24.47
2018-09-29T06:55:44.535Z,20.83
2018-09-29T06:58:17.851Z,17.47
2018-09-29T07:00:51.602Z,17.27
2018-09-29T07:03:25.563Z,18.10
2018-09-29T07:05:58.077Z,14.50
2018-09-29T07:08:30.684Z,17.83
2018-09-29T07:11:07.660Z,18.70
2018-09-29T07:13:43.254Z,20.17
2018-09-29T07:16:15.864Z,17.53
2018-09-29T07:18:48.816Z,20.73
2018-09-29T07:21:22.384Z,23.70
2018-09-29T07:23:56.107Z,18.17
2018-09-29T07:26:28.984Z,17.90
2018-09-29T07:29:01.564Z,16.63
2018-09-29T07:31:34.110Z,18.07
2018-09-29T07:34:07.748Z,17.70
2018-09-29T07:36:40.268Z,18.70
2018-09-29T07:39:12.969Z,20.70
2018-09-29T07:41:47.932Z,18.70
2018-09-29T07:44:21.357Z,18.07
2018-09-29T07:46:54.625Z,17.37
2018-09-29T07:49:30.889Z,14.87
2018-09-29T07:52:03.762Z,14.82
2018-09-29T07:54:36.610Z,16.60
2018-09-29T07:57:14.021Z,14.23
2018-09-29T07:59:54.057Z,14.93
2018-09-29T08:02:30.889Z,14.70
2018-09-29T08:05:05.855Z,13.90
2018-09-29T08:07:40.458Z,16.73
2018-09-29T08:10:15.723Z,16.63
2018-09-29T08:12:50.257Z,12.00
2018-09-29T08:15:23.009Z,12.97
2018-09-29T08:17:56.822Z,12.73
2018-09-29T08:20:30.494Z,17.90
2018-09-29T08:23:06.385Z,7.10
2018-09-29T08:25:39.872Z,11.60
2018-09-29T08:28:13.925Z,17.50
2018-09-29T08:30:47.729Z,10.63
2018-09-29T08:33:22.044Z,7.90
2018-09-29T08:35:55.365Z,12.60
2018-09-29T08:38:28.389Z,13.90
2018-09-29T08:41:01.069Z,9.03
2018-09-29T08:43:33.797Z,12.77
2018-09-29T08:46:09.574Z,13.00
2018-09-29T08:48:43.728Z,9.17
2018-09-29T08:51:18.797Z,8.03
2018-09-29T08:53:54.767Z,11.00
2018-09-29T08:56:27.568Z,10.60
2018-09-29T08:59:03.072Z,6.50
2018-09-29T09:01:43.398Z,9.05
2018-09-29T09:04:19.075Z,5.07
2018-09-29T09:06:51.627Z,6.20
2018-09-29T09:09:31.330Z,5.87
2018-09-29T09:12:07.159Z,7.13
2018-09-29T09:14:41.598Z,6.70
2018-09-29T09:17:25.293Z,7.43
2018-09-29T09:19:58.698Z,7.27
2018-09-29T09:22:34.400Z,6.50
2018-09-29T09:25:08.519Z,8.37
2018-09-29T09:27:45.093Z,4.93
2018-09-29T09:30:18.033Z,6.27
2018-09-29T09:32:50.471Z,8.27
2018-09-29T09:35:23.126Z,4.10
2018-09-29T09:37:56.329Z,5.53
2018-09-29T09:40:29.721Z,6.30
2018-09-29T09:43:03.302Z,4.83
2018-09-29T09:45:37.191Z,6.75
2018-09-29T09:48:11.325Z,6.93
2018-09-29T09:50:44.176Z,4.30
2018-09-29T09:53:21.697Z,3.83
2018-09-29T09:55:57.694Z,4.33
2018-09-29T09:58:31.645Z,3.43
2018-09-29T10:01:09.781Z,6.93
2018-09-29T10:03:43.021Z,4.93
2018-09-29T10:06:17.517Z,4.68
2018-09-29T10:08:51.536Z,2.70
2018-09-29T10:11:24.601Z,6.77
2018-09-29T10:14:00.645Z,3.28
2018-09-29T10:16:36.966Z,5.25
2018-09-29T10:19:09.591Z,3.17
2018-09-29T10:21:44.696Z,5.60
2018-09-29T10:24:17.392Z,5.03
2018-09-29T10:26:50.239Z,9.23
2018-09-29T10:29:23.151Z,3.93
2018-09-29T10:31:55.733Z,6.27
2018-09-29T10:34:32.941Z,4.87
2018-09-29T10:37:06.131Z,3.30
2018-09-29T10:39:39.574Z,6.30
2018-09-29T10:42:13.513Z,8.07
2018-09-29T10:44:47.740Z,6.13
2018-09-29T10:47:21.049Z,5.33
2018-09-29T10:49:56.468Z,3.97
2018-09-29T10:52:29.243Z,2.72
2018-09-29T10:55:02.325Z,3.20
2018-09-29T10:57:43.620Z,4.50
2018-09-29T11:00:18.079Z,3.37
2018-09-29T11:02:50.954Z,2.57
2018-09-29T11:05:26.020Z,6.77
2018-09-29T11:07:59.097Z,3.58
2018-09-29T11:10:33.301Z,6.03
2018-09-29T11:13:06.865Z,2.17
2018-09-29T11:15:40.252Z,3.70
2018-09-29T11:18:14.301Z,3.47
2018-09-29T11:20:52.891Z,2.80
2018-09-29T11:23:33.293Z,5.10
2018-09-29T11:26:11.623Z,3.43
2018-09-29T11:28:49.765Z,3.47
2018-09-29T11:31:27.667Z,3.17
2018-09-29T11:34:04.952Z,2.60
2018-09-29T11:36:41.326Z,3.90
2018-09-29T11:39:16.427Z,4.97
2018-09-29T11:41:50.732Z,4.33
2018-09-29T11:44:34.067Z,3.33
2018-09-29T11:47:17.586Z,4.93
2018-09-29T11:49:55.545Z,3.23
2018-09-29T11:52:28.300Z,2.57
2018-09-29T11:55:03.381Z,2.30
2018-09-29T11:57:40.424Z,1.40
2018-09-29T12:00:19.108Z,2.07
2018-09-29T12:02:51.870Z,2.20
2018-09-29T12:05:25.382Z,3.27
2018-09-29T12:08:00.379Z,4.73
2018-09-29T12:10:33.944Z,3.40
2018-09-29T12:13:07.352Z,4.13
2018-09-29T12:15:42.368Z,3.92
2018-09-29T12:18:16.482Z,2.80
2018-09-29T12:20:50.991Z,2.83
2018-09-29T12:23:26.060Z,4.17
2018-09-29T12:25:58.585Z,4.12
2018-09-29T12:28:32.656Z,5.93
2018-09-29T12:31:06.193Z,2.83
2018-09-29T12:33:40.970Z,1.97
2018-09-29T12:36:13.656Z,1.87
2018-09-29T12:38:47.154Z,4.37
2018-09-29T12:41:21.511Z,2.10
2018-09-29T12:43:54.432Z,2.57
2018-09-29T12:46:27.868Z,6.53
2018-09-29T12:49:00.731Z,4.40
2018-09-29T12:51:35.353Z,3.90
2018-09-29T12:54:11.235Z,6.17
2018-09-29T12:56:48.841Z,3.97
2018-09-29T12:59:21.434Z,3.03
2018-09-29T13:01:54.475Z,3.67
2018-09-29T13:04:29.146Z,3.00
2018-09-29T13:07:01.912Z,3.37
2018-09-29T13:09:35.028Z,3.77
2018-09-29T13:12:07.683Z,4.43
2018-09-29T13:14:40.209Z,3.13
2018-09-29T13:17:13.533Z,2.63
2018-09-29T13:19:47.325Z,2.37
2018-09-29T13:22:20.630Z,2.57
2018-09-29T13:24:58.913Z,3.77
2018-09-29T13:27:33.309Z,1.90
2018-09-29T13:30:08.526Z,2.23
2018-09-29T13:32:47.439Z,1.57
2018-09-29T13:35:20.960Z,2.47
2018-09-29T13:37:53.612Z,2.80
2018-09-29T13:40:28.927Z,3.60
2018-09-29T13:43:04.909Z,5.77
2018-09-29T13:45:40.429Z,5.00
2018-09-29T13:48:14.358Z,1.67
2018-09-29T13:50:48.254Z,5.50
2018-09-29T13:53:22.315Z,2.77
2018-09-29T13:55:56.344Z,2.20
2018-09-29T13:58:29.301Z,5.13
2018-09-29T14:01:05.798Z,4.00
2018-09-29T14:03:39.162Z,2.63
2018-09-29T14:06:14.470Z,2.27
2018-09-29T14:08:48.796Z,2.75
2018-09-29T14:11:23.131Z,2.07
2018-09-29T14:14:01.343Z,2.83
2018-09-29T14:16:34.826Z,2.37
2018-09-29T14:19:08.004Z,2.20
2018-09-29T14:21:45.156Z,1.33
2018-09-29T14:24:19.620Z,4.23
2018-09-29T14:26:55.119Z,3.93
2018-09-29T14:29:31.403Z,2.13
2018-09-29T14:32:04.005Z,3.40
2018-09-29T14:34:37.367Z,2.50
2018-09-29T14:37:10.708Z,2.33
2018-09-29T14:39:44.381Z,2.50
2018-09-29T14:42:17.807Z,3.20
2018-09-29T14:44:51.965Z,4.23
2018-09-29T14:47:26.946Z,1.87
2018-09-29T14:50:00.282Z,3.60
2018-09-29T14:52:37.257Z,4.97
2018-09-29T14:55:12.036Z,2.55
2018-09-29T14:57:46.215Z,0.93
2018-09-29T15:00:19.745Z,3.03
2018-09-29T15:02:54.042Z,2.30
2018-09-29T15:05:28.050Z,3.33
2018-09-29T15:08:02.388Z,3.00
2018-09-29T15:10:35.066Z,3.27
2018-09-29T15:13:07.918Z,2.47
2018-09-29T15:15:43.188Z,4.37
2018-09-29T15:18:23.613Z,1.73
2018-09-29T15:21:05.192Z,2.30
2018-09-29T15:23:39.465Z,3.87
2018-09-29T15:26:13.353Z,1.70
2018-09-29T15:28:47.423Z,4.13
2018-09-29T15:31:23.191Z,2.53
2018-09-29T15:33:58.741Z,3.67
2018-09-29T15:36:33.757Z,3.23
2018-09-29T15:39:10.641Z,3.23
2018-09-29T15:41:43.276Z,3.37
2018-09-29T15:44:18.553Z,2.60
2018-09-29T15:46:52.694Z,3.50
2018-09-29T15:49:26.190Z,2.67
2018-09-29T15:52:13.693Z,3.77
2018-09-29T15:54:53.360Z,2.30
2018-09-29T15:57:28.301Z,3.40
2018-09-29T16:00:07.393Z,5.07
2018-09-29T16:02:39.968Z,2.20
2018-09-29T16:05:19.538Z,3.67
2018-09-29T16:07:58.690Z,4.30
2018-09-29T16:10:32.620Z,3.43
2018-09-29T16:13:07.172Z,4.13
2018-09-29T16:15:42.315Z,3.50
2018-09-29T16:18:17.993Z,4.43
2018-09-29T16:20:53.697Z,3.30
2018-09-29T16:23:26.885Z,3.47
2018-09-29T16:26:02.877Z,4.80
2018-09-29T16:28:39.784Z,5.37
2018-09-29T16:31:25.312Z,3.95
2018-09-29T16:34:00.245Z,4.30
2018-09-29T16:36:37.528Z,3.17
2018-09-29T16:39:12.343Z,5.37
2018-09-29T16:41:45.379Z,1.63
2018-09-29T16:44:18.149Z,3.33
2018-09-29T16:46:51.237Z,4.73
2018-09-29T16:49:27.484Z,2.17
2018-09-29T16:52:00.301Z,3.87
2018-09-29T16:54:35.084Z,3.43
2018-09-29T16:57:08.727Z,3.03
2018-09-29T16:59:43.599Z,5.87
2018-09-29T17:02:21.294Z,3.13
2018-09-29T17:04:56.105Z,4.97
2018-09-29T17:07:39.654Z,4.80
2018-09-29T17:10:14.666Z,5.37
2018-09-29T17:12:48.552Z,4.93
2018-09-29T17:15:21.917Z,4.90
2018-09-29T17:17:57.852Z,4.80
2018-09-29T17:20:32.522Z,4.87
2018-09-29T17:23:05.118Z,2.27
2018-09-29T17:25:37.626Z,5.77
2018-09-29T17:28:10.644Z,4.53
2018-09-29T17:30:44.373Z,3.60
2018-09-29T17:33:17.025Z,3.62
2018-09-29T17:35:50.092Z,4.83
2018-09-29T17:38:25.228Z,4.53
2018-09-29T17:41:00.032Z,3.40
2018-09-29T17:43:36.792Z,3.17
2018-09-29T17:46:12.488Z,6.57
2018-09-29T17:48:48.207Z,5.33
2018-09-29T17:51:23.206Z,5.83
2018-09-29T17:56:59.082Z,4.63
2018-09-29T17:59:40.687Z,5.57
2018-09-29T18:02:24.580Z,4.03
2018-09-29T18:05:04.786Z,3.57
2018-09-29T18:07:53.314Z,4.10
2018-09-29T18:10:31.019Z,3.67
2018-09-29T18:13:13.117Z,4.47
2018-09-29T18:15:52.623Z,7.23
2018-09-29T18:18:32.077Z,8.90
2018-09-29T18:21:07.400Z,4.73
2018-09-29T18:23:42.966Z,8.07
2018-09-29T18:26:20.205Z,7.20
2018-09-29T18:28:56.651Z,7.83
2018-09-29T18:31:36.435Z,15.23
2018-09-29T18:34:15.408Z,9.40
2018-09-29T18:36:55.710Z,13.80
2018-09-29T18:39:31.360Z,11.37
2018-09-29T18:42:10.396Z,12.90
2018-09-29T18:44:46.491Z,11.07
2018-09-29T18:47:24.628Z,11.03
2018-09-29T18:49:59.985Z,17.67
2018-09-29T18:52:38.199Z,41.53
2018-09-29T18:55:13.103Z,32.67
2018-09-29T18:57:50.710Z,38.78
2018-09-29T19:00:27.868Z,22.47
2018-09-29T19:03:03.526Z,21.13
2018-09-29T19:05:46.282Z,18.10
2018-09-29T19:08:23.683Z,16.73
2018-09-29T19:11:01.586Z,15.67
2018-09-29T19:13:36.618Z,16.00
2018-09-29T19:16:13.147Z,11.87
2018-09-29T19:18:47.914Z,19.00
2018-09-29T19:21:21.585Z,15.07
2018-09-29T19:24:00.636Z,16.57
2018-09-29T19:26:36.969Z,13.20
2018-09-29T19:29:13.305Z,11.03
2018-09-29T19:31:49.559Z,11.30
2018-09-29T19:34:24.634Z,14.20
2018-09-29T19:37:01.454Z,10.07
2018-09-29T19:40:15.356Z,8.00
2018-09-29T19:42:57.640Z,8.90
2018-09-29T19:45:30.821Z,10.83
2018-09-29T19:48:06.926Z,7.35
2018-09-29T19:50:43.902Z,7.93
2018-09-29T19:53:19.946Z,6.70
2018-09-29T19:55:59.017Z,7.63
2018-09-29T19:58:32.732Z,10.03
2018-09-29T20:01:08.861Z,9.17
2018-09-29T20:03:43.465Z,8.17
2018-09-29T20:06:15.977Z,10.33
2018-09-29T20:08:52.602Z,11.20
2018-09-29T20:11:33.856Z,10.37
2018-09-29T20:14:17.630Z,8.23
2018-09-29T20:16:51.333Z,10.63
2018-09-29T20:19:24.076Z,8.17
2018-09-29T20:22:03.325Z,5.97
2018-09-29T20:24:39.054Z,7.93
2018-09-29T20:27:14.622Z,7.87
2018-09-29T20:29:51.557Z,9.70
2018-09-29T20:32:25.800Z,9.77
2018-09-29T20:34:59.187Z,11.30
2018-09-29T20:37:33.983Z,16.62
2018-09-29T20:40:09.104Z,21.80
2018-09-29T20:42:43.285Z,17.63
2018-09-29T20:45:17.985Z,13.57
2018-09-29T20:47:51.437Z,10.97
2018-09-29T20:50:36.354Z,9.07
2018-09-29T20:53:10.867Z,8.73
2018-09-29T20:55:43.522Z,11.50
2018-09-29T20:58:17.577Z,10.27
2018-09-29T21:00:50.774Z,9.10
2018-09-29T21:03:24.152Z,9.20
2018-09-29T21:05:57.957Z,7.37
2018-09-29T21:08:31.165Z,12.60
2018-09-29T21:11:07.195Z,7.93
2018-09-29T21:13:41.716Z,10.10
2018-09-29T21:16:16.817Z,8.37
2018-09-29T21:18:51.522Z,9.63
2018-09-29T21:21:25.149Z,12.10
2018-09-29T21:23:59.721Z,12.30
2018-09-29T21:26:32.319Z,7.83
2018-09-29T21:29:06.964Z,15.57
2018-09-29T21:31:41.726Z,11.80
2018-09-29T21:34:14.322Z,16.13
2018-09-29T21:36:51.417Z,14.13
2018-09-29T21:39:24.176Z,13.73
2018-09-29T21:42:01.717Z,11.57
2018-09-29T21:44:37.835Z,9.13
2018-09-29T21:47:11.413Z,10.70
2018-09-29T21:49:47.193Z,10.43
2018-09-29T21:52:20.883Z,10.65
2018-09-29T21:54:53.479Z,10.07
2018-09-29T21:57:28.346Z,8.80
2018-09-29T22:00:01.053Z,6.67
2018-09-29T22:02:37.835Z,8.40
2018-09-29T22:05:11.856Z,10.97
2018-09-29T22:07:46.356Z,8.90
2018-09-29T22:10:20.081Z,5.77
2018-09-29T22:12:55.132Z,8.67
2018-09-29T22:15:30.409Z,8.03
2018-09-29T22:18:03.016Z,15.23
2018-09-29T22:20:36.744Z,11.50
2018-09-29T22:23:12.512Z,10.67
2018-09-29T22:25:46.097Z,7.87
2018-09-29T22:28:19.987Z,6.97
2018-09-29T22:30:53.323Z,5.67
2018-09-29T22:33:29.772Z,7.13
2018-09-29T22:36:05.265Z,7.53
2018-09-29T22:38:38.548Z,6.40
2018-09-29T22:41:11.088Z,5.43
2018-09-29T22:43:46.233Z,9.67
2018-09-29T22:46:19.662Z,4.50
2018-09-29T22:48:54.969Z,5.77
2018-09-29T22:51:29.268Z,5.03
2018-09-29T22:54:03.032Z,6.17
2018-09-29T22:56:35.537Z,5.53
2018-09-29T22:59:08.582Z,4.97
2018-09-29T23:01:42.510Z,5.17
2018-09-29T23:04:16.206Z,4.77
2018-09-29T23:06:51.436Z,3.50
2018-09-29T23:09:28.447Z,6.53
2018-09-29T23:12:02.521Z,6.67
2018-09-29T23:14:37.941Z,7.37
2018-09-29T23:17:12.935Z,7.28
2018-09-29T23:19:47.677Z,5.77
2018-09-29T23:22:21.435Z,6.57
2018-09-29T23:24:55.109Z,4.37
2018-09-29T23:27:28.964Z,8.47
2018-09-29T23:30:03.308Z,8.63
2018-09-29T23:32:35.740Z,8.60
2018-09-29T23:35:09.648Z,7.03
2018-09-29T23:37:45.461Z,7.67
2018-09-29T23:40:19.681Z,4.93
2018-09-29T23:42:52.969Z,5.50
2018-09-29T23:45:26.573Z,6.47
2018-09-29T23:48:01.377Z,6.72
2018-09-29T23:50:43.737Z,5.63
2018-09-29T23:53:19.125Z,5.37
2018-09-29T23:55:52.057Z,6.97
2018-09-29T23:58:30.986Z,5.83
